createdAt,value
2019-05-25T00:01:00.631Z,17.36
2019-05-25T00:03:30.382Z,17.46
2019-05-25T00:05:59.977Z,17.27
2019-05-25T00:08:29.526Z,17.24
2019-05-25T00:10:59.136Z,17.40
2019-05-25T00:13:28.732Z,17.07
2019-05-25T00:15:58.335Z,17.20
2019-05-25T00:18:27.948Z,17.18
2019-05-25T00:20:57.565Z,17.27
2019-05-25T00:23:27.173Z,17.30
2019-05-25T00:25:56.755Z,17.40
2019-05-25T00:28:26.358Z,17.65
2019-05-25T00:30:55.940Z,17.49
2019-05-25T00:33:25.492Z,17.38
2019-05-25T00:35:55.153Z,17.44
2019-05-25T00:38:24.726Z,17.47
2019-05-25T00:40:54.336Z,17.37
2019-05-25T00:43:23.872Z,17.45
2019-05-25T00:45:53.465Z,17.83
2019-05-25T00:48:23.085Z,17.85
2019-05-25T00:50:52.646Z,17.84
2019-05-25T00:53:22.338Z,17.94
2019-05-25T00:55:51.938Z,18.00
2019-05-25T00:58:21.487Z,17.91
2019-05-25T01:00:51.107Z,17.87
2019-05-25T01:03:20.672Z,17.99
2019-05-25T01:05:50.319Z,18.23
2019-05-25T01:08:19.943Z,18.04
2019-05-25T01:10:49.495Z,17.96
2019-05-25T01:13:19.051Z,18.00
2019-05-25T01:15:48.645Z,18.19
2019-05-25T01:18:18.262Z,17.73
2019-05-25T01:20:47.880Z,17.33
2019-05-25T01:23:17.429Z,17.39
2019-05-25T01:25:46.997Z,16.99
2019-05-25T01:28:16.567Z,17.28
2019-05-25T01:30:46.170Z,16.81
2019-05-25T01:33:15.829Z,17.16
2019-05-25T01:35:45.439Z,16.78
2019-05-25T01:38:14.995Z,16.52
2019-05-25T01:40:44.569Z,16.87
2019-05-25T01:43:14.148Z,16.57
2019-05-25T01:45:43.775Z,16.31
2019-05-25T01:48:13.346Z,16.22
2019-05-25T01:50:42.916Z,16.22
2019-05-25T01:53:12.486Z,15.92
2019-05-25T01:55:42.036Z,15.67
2019-05-25T01:58:11.636Z,15.55
2019-05-25T02:00:41.203Z,15.43
2019-05-25T02:03:10.858Z,15.50
2019-05-25T02:05:40.451Z,15.28
2019-05-25T02:08:10.019Z,15.21
2019-05-25T02:10:39.647Z,14.97
2019-05-25T02:13:09.213Z,15.26
2019-05-25T02:15:38.814Z,15.12
2019-05-25T02:18:08.382Z,15.31
2019-05-25T02:20:37.953Z,15.30
2019-05-25T02:23:07.669Z,15.19
2019-05-25T02:25:37.262Z,15.29
2019-05-25T02:28:06.823Z,15.32
2019-05-25T02:30:36.683Z,15.43
2019-05-25T02:33:06.262Z,15.43
2019-05-25T02:35:35.842Z,15.81
2019-05-25T02:38:05.542Z,15.43
2019-05-25T02:40:35.221Z,15.33
2019-05-25T02:43:04.811Z,15.34
2019-05-25T02:45:34.420Z,15.22
2019-05-25T02:48:04.109Z,15.28
2019-05-25T02:50:33.709Z,15.28
2019-05-25T02:53:03.291Z,15.05
2019-05-25T02:55:35.006Z,15.13
2019-05-25T02:58:04.222Z,15.22
2019-05-25T03:00:34.560Z,15.20
2019-05-25T03:03:05.423Z,15.20
2019-05-25T03:05:34.992Z,15.23
2019-05-25T03:08:04.786Z,15.31
2019-05-25T03:10:34.630Z,15.38
2019-05-25T03:13:04.699Z,15.47
2019-05-25T03:15:34.345Z,15.51
2019-05-25T03:18:04.013Z,15.63
2019-05-25T03:20:33.571Z,15.74
2019-05-25T03:23:03.150Z,15.99
2019-05-25T03:25:48.290Z,16.03
2019-05-25T03:28:04.047Z,16.19
2019-05-25T03:30:35.289Z,16.28
2019-05-25T03:33:05.007Z,16.54
2019-05-25T03:35:34.719Z,16.63
2019-05-25T03:38:04.312Z,16.96
2019-05-25T03:40:33.889Z,17.11
2019-05-25T03:43:03.469Z,17.17
2019-05-25T03:45:33.108Z,17.28
2019-05-25T03:48:02.799Z,17.37
2019-05-25T03:50:32.371Z,17.48
2019-05-25T03:53:01.980Z,17.61
2019-05-25T03:55:31.578Z,17.61
2019-05-25T03:58:01.207Z,18.06
2019-05-25T04:00:37.656Z,18.09
2019-05-25T04:03:08.065Z,18.33
2019-05-25T04:05:37.641Z,18.28
2019-05-25T04:08:07.241Z,18.36
2019-05-25T04:10:38.918Z,18.47
2019-05-25T04:13:08.102Z,18.27
2019-05-25T04:15:37.720Z,18.11
2019-05-25T04:18:07.314Z,18.42
2019-05-25T04:20:37.160Z,17.95
2019-05-25T04:23:06.744Z,17.90
2019-05-25T04:25:36.328Z,17.73
2019-05-25T04:28:06.022Z,17.84
2019-05-25T04:30:35.576Z,18.27
2019-05-25T04:33:05.235Z,18.45
2019-05-25T04:35:34.838Z,18.42
2019-05-25T04:38:04.556Z,18.48
2019-05-25T04:40:34.149Z,18.18
2019-05-25T04:43:03.745Z,18.57
2019-05-25T04:45:33.394Z,18.38
2019-05-25T04:48:03.037Z,18.41
2019-05-25T04:50:32.614Z,18.23
2019-05-25T04:53:02.177Z,18.35
2019-05-25T04:55:31.780Z,18.64
2019-05-25T04:58:01.360Z,18.35
2019-05-25T05:00:30.975Z,18.43
2019-05-25T05:03:00.574Z,18.83
2019-05-25T05:05:30.156Z,19.02
2019-05-25T05:07:59.745Z,19.15
2019-05-25T05:10:29.310Z,19.00
2019-05-25T05:12:58.938Z,18.95
2019-05-25T05:15:28.514Z,18.92
2019-05-25T05:17:58.077Z,19.31
2019-05-25T05:20:27.684Z,19.58
2019-05-25T05:22:57.275Z,19.12
2019-05-25T05:25:26.905Z,19.58
2019-05-25T05:27:56.481Z,19.64
2019-05-25T05:30:35.889Z,19.78
2019-05-25T05:33:05.754Z,19.97
2019-05-25T05:35:38.844Z,20.05
2019-05-25T05:38:07.651Z,19.88
2019-05-25T05:40:38.407Z,19.98
2019-05-25T05:43:11.562Z,19.59
2019-05-25T05:45:43.185Z,19.71
2019-05-25T05:48:14.323Z,19.71
2019-05-25T05:50:45.250Z,19.68
2019-05-25T05:53:14.943Z,19.76
2019-05-25T05:55:44.660Z,19.69
2019-05-25T05:58:14.222Z,19.86
2019-05-25T06:00:43.790Z,19.91
2019-05-25T06:03:13.363Z,20.08
2019-05-25T06:05:42.942Z,20.09
2019-05-25T06:08:12.636Z,19.92
2019-05-25T06:10:42.243Z,20.10
2019-05-25T06:13:11.910Z,19.79
2019-05-25T06:15:41.582Z,19.86
2019-05-25T06:18:11.199Z,20.14
2019-05-25T06:20:40.756Z,19.74
2019-05-25T06:23:12.446Z,19.87
2019-05-25T06:25:41.725Z,19.91
2019-05-25T06:28:11.392Z,20.02
2019-05-25T06:30:40.999Z,20.15
2019-05-25T06:33:10.573Z,20.21
2019-05-25T06:35:40.177Z,20.09
2019-05-25T06:38:09.764Z,20.06
2019-05-25T06:40:39.533Z,20.26
2019-05-25T06:43:09.116Z,20.28
2019-05-25T06:45:38.704Z,20.41
2019-05-25T06:48:08.321Z,20.30
2019-05-25T06:50:37.919Z,20.25
2019-05-25T06:53:07.582Z,20.21
2019-05-25T06:55:37.177Z,20.36
2019-05-25T06:58:06.861Z,20.48
2019-05-25T07:00:36.483Z,20.68
2019-05-25T07:03:06.075Z,21.01
2019-05-25T07:05:35.650Z,20.88
2019-05-25T07:08:05.310Z,20.67
2019-05-25T07:10:34.951Z,20.76
2019-05-25T07:13:04.747Z,20.69
2019-05-25T07:15:34.332Z,20.79
2019-05-25T07:18:03.901Z,20.87
2019-05-25T07:20:33.474Z,20.85
2019-05-25T07:23:03.070Z,21.05
2019-05-25T07:25:32.747Z,21.08
2019-05-25T07:28:02.330Z,21.31
2019-05-25T07:30:31.886Z,21.18
2019-05-25T07:33:01.492Z,21.47
2019-05-25T07:35:31.080Z,21.38
2019-05-25T07:38:00.743Z,21.31
2019-05-25T07:40:30.420Z,21.55
2019-05-25T07:42:59.994Z,21.85
2019-05-25T07:45:29.588Z,21.98
2019-05-25T07:47:59.190Z,21.83
2019-05-25T07:50:28.840Z,21.67
2019-05-25T07:52:58.404Z,21.47
2019-05-25T07:55:27.982Z,21.57
2019-05-25T07:57:57.579Z,21.61
2019-05-25T08:00:27.407Z,21.89
2019-05-25T08:02:57.050Z,21.82
2019-05-25T08:05:26.615Z,22.09
2019-05-25T08:07:56.191Z,21.89
2019-05-25T08:10:25.796Z,21.88
2019-05-25T08:12:55.382Z,22.05
2019-05-25T08:15:24.997Z,22.20
2019-05-25T08:17:54.586Z,22.33
2019-05-25T08:20:24.157Z,22.57
2019-05-25T08:22:54.946Z,22.88
2019-05-25T08:25:24.496Z,23.02
2019-05-25T08:27:54.129Z,22.76
2019-05-25T08:30:23.885Z,22.91
2019-05-25T08:32:53.483Z,22.79
2019-05-25T08:35:23.086Z,22.85
2019-05-25T08:37:52.728Z,23.15
2019-05-25T08:40:22.513Z,23.46
2019-05-25T08:42:52.108Z,23.48
2019-05-25T08:45:25.686Z,23.17
2019-05-25T08:47:56.787Z,23.52
2019-05-25T08:50:37.199Z,23.76
2019-05-25T08:52:56.076Z,23.94
2019-05-25T08:55:25.704Z,23.83
2019-05-25T08:57:55.408Z,24.06
2019-05-25T09:00:25.144Z,24.17
2019-05-25T09:02:54.750Z,24.42
2019-05-25T09:05:24.298Z,24.10
2019-05-25T09:07:53.968Z,24.23
2019-05-25T09:10:23.562Z,24.73
2019-05-25T09:12:53.213Z,24.76
2019-05-25T09:15:22.899Z,24.59
2019-05-25T09:17:52.463Z,24.51
2019-05-25T09:20:22.183Z,24.08
2019-05-25T09:22:51.730Z,24.04
2019-05-25T09:25:21.392Z,24.05
2019-05-25T09:27:50.971Z,24.28
2019-05-25T09:30:20.584Z,24.30
2019-05-25T09:32:50.222Z,23.91
2019-05-25T09:35:19.860Z,23.94
2019-05-25T09:37:49.462Z,24.84
2019-05-25T09:40:19.803Z,24.86
2019-05-25T09:42:49.473Z,24.88
2019-05-25T09:45:19.217Z,25.10
2019-05-25T09:47:48.797Z,25.13
2019-05-25T09:50:18.419Z,25.35
2019-05-25T09:52:48.032Z,25.46
2019-05-25T09:55:17.706Z,24.88
2019-05-25T09:57:47.351Z,24.48
2019-05-25T10:00:17.472Z,24.28
2019-05-25T10:02:47.139Z,23.83
2019-05-25T10:05:16.851Z,23.51
2019-05-25T10:07:46.421Z,23.36
2019-05-25T10:10:16.334Z,22.99
2019-05-25T10:12:45.915Z,23.33
2019-05-25T10:15:15.560Z,23.16
2019-05-25T10:17:45.209Z,23.26
2019-05-25T10:20:15.285Z,23.58
2019-05-25T10:22:44.869Z,23.67
2019-05-25T10:25:15.284Z,24.23
2019-05-25T10:27:44.858Z,24.63
2019-05-25T10:30:14.701Z,24.76
2019-05-25T10:32:44.286Z,24.98
2019-05-25T10:35:14.220Z,25.31
2019-05-25T10:37:43.814Z,25.24
2019-05-25T10:40:13.623Z,25.74
2019-05-25T10:42:43.203Z,25.53
2019-05-25T10:45:14.901Z,25.82
2019-05-25T10:47:44.501Z,25.72
2019-05-25T10:50:14.443Z,26.05
2019-05-25T10:52:44.001Z,25.39
2019-05-25T10:55:14.272Z,24.98
2019-05-25T10:57:43.891Z,25.06
2019-05-25T11:00:15.496Z,24.92
2019-05-25T11:02:45.145Z,24.67
2019-05-25T11:05:15.655Z,24.62
2019-05-25T11:07:45.322Z,24.64
2019-05-25T11:10:15.348Z,24.75
2019-05-25T11:12:44.979Z,24.94
2019-05-25T11:15:15.020Z,24.89
2019-05-25T11:17:44.582Z,24.84
2019-05-25T11:20:14.466Z,24.88
2019-05-25T11:22:44.089Z,24.85
2019-05-25T11:25:14.096Z,24.91
2019-05-25T11:27:43.751Z,25.08
2019-05-25T11:30:14.651Z,25.39
2019-05-25T11:32:44.255Z,25.75
2019-05-25T11:35:14.147Z,25.82
2019-05-25T11:37:43.739Z,25.60
2019-05-25T11:40:14.077Z,25.56
2019-05-25T11:42:43.649Z,25.56
2019-05-25T11:45:14.550Z,25.42
2019-05-25T11:47:44.140Z,25.42
2019-05-25T11:50:14.722Z,25.55
2019-05-25T11:52:44.370Z,25.55
2019-05-25T11:55:14.597Z,25.58
2019-05-25T11:57:44.214Z,25.82
2019-05-25T12:00:24.421Z,25.87
2019-05-25T12:02:46.280Z,25.96
2019-05-25T12:05:16.086Z,26.13
2019-05-25T12:07:45.763Z,25.77
2019-05-25T12:10:16.908Z,25.76
2019-05-25T12:12:46.501Z,25.75
2019-05-25T12:15:16.572Z,25.82
2019-05-25T12:17:46.184Z,25.82
2019-05-25T12:20:17.738Z,26.19
2019-05-25T12:22:47.334Z,26.00
2019-05-25T12:25:17.811Z,25.74
2019-05-25T12:27:49.350Z,25.46
2019-05-25T12:30:20.371Z,25.74
2019-05-25T12:32:50.115Z,25.74
2019-05-25T12:35:19.900Z,25.79
2019-05-25T12:37:49.507Z,26.20
2019-05-25T12:40:20.129Z,26.64
2019-05-25T12:42:49.725Z,26.69
2019-05-25T12:45:19.572Z,26.69
2019-05-25T12:47:49.152Z,26.83
2019-05-25T12:50:18.970Z,26.83
2019-05-25T12:52:48.630Z,27.03
2019-05-25T12:55:18.260Z,27.26
2019-05-25T12:57:47.813Z,26.99
2019-05-25T13:00:17.714Z,27.08
2019-05-25T13:02:47.330Z,27.51
2019-05-25T13:05:32.668Z,27.40
2019-05-25T13:07:49.318Z,26.88
2019-05-25T13:10:19.135Z,26.88
2019-05-25T13:12:48.707Z,26.72
2019-05-25T13:15:18.366Z,26.68
2019-05-25T13:17:48.174Z,26.49
2019-05-25T13:20:18.098Z,26.55
2019-05-25T13:22:47.744Z,26.85
2019-05-25T13:25:17.521Z,26.93
2019-05-25T13:27:47.085Z,26.73
2019-05-25T13:30:18.226Z,26.90
2019-05-25T13:32:47.848Z,26.33
2019-05-25T13:35:18.004Z,26.32
2019-05-25T13:37:47.708Z,26.69
2019-05-25T13:40:18.310Z,26.85
2019-05-25T13:42:47.974Z,26.85
2019-05-25T13:45:18.336Z,26.91
2019-05-25T13:47:47.945Z,26.90
2019-05-25T13:50:18.545Z,26.91
2019-05-25T13:52:48.164Z,26.73
2019-05-25T13:55:17.984Z,26.13
2019-05-25T13:57:47.591Z,26.47
2019-05-25T14:00:17.500Z,26.66
2019-05-25T14:02:47.161Z,26.73
2019-05-25T14:05:16.932Z,26.56
2019-05-25T14:07:46.584Z,27.17
2019-05-25T14:10:16.244Z,27.33
2019-05-25T14:12:45.829Z,27.11
2019-05-25T14:15:15.543Z,27.42
2019-05-25T14:17:45.124Z,26.65
2019-05-25T14:20:15.044Z,26.91
2019-05-25T14:22:44.685Z,26.52
2019-05-25T14:25:14.407Z,26.75
2019-05-25T14:27:44.000Z,26.70
2019-05-25T14:30:14.375Z,26.75
2019-05-25T14:32:44.014Z,26.36
2019-05-25T14:35:14.055Z,26.43
2019-05-25T14:37:43.645Z,26.35
2019-05-25T14:40:13.335Z,26.61
2019-05-25T14:42:42.952Z,25.95
2019-05-25T14:45:14.398Z,25.95
2019-05-25T14:47:43.997Z,26.14
2019-05-25T14:50:14.183Z,25.98
2019-05-25T14:52:43.879Z,25.83
2019-05-25T14:55:13.581Z,25.90
2019-05-25T14:57:43.174Z,25.53
2019-05-25T15:00:13.394Z,25.53
2019-05-25T15:02:43.038Z,25.69
2019-05-25T15:05:12.909Z,25.90
2019-05-25T15:07:42.500Z,25.58
2019-05-25T15:10:12.488Z,25.24
2019-05-25T15:12:42.136Z,25.52
2019-05-25T15:15:12.505Z,25.52
2019-05-25T15:17:43.102Z,25.35
2019-05-25T15:20:14.802Z,25.12
2019-05-25T15:22:46.830Z,24.76
2019-05-25T15:25:17.339Z,24.76
2019-05-25T15:27:47.022Z,24.74
2019-05-25T15:30:16.822Z,24.86
2019-05-25T15:32:46.637Z,24.85
2019-05-25T15:35:20.031Z,24.85
2019-05-25T15:37:47.893Z,24.75
2019-05-25T15:40:17.780Z,24.65
2019-05-25T15:42:47.520Z,24.52
2019-05-25T15:45:17.511Z,24.61
2019-05-25T15:47:47.145Z,24.77
2019-05-25T15:50:17.710Z,24.56
2019-05-25T15:52:47.344Z,24.74
2019-05-25T15:55:17.357Z,24.82
2019-05-25T15:57:46.984Z,24.97
2019-05-25T16:00:18.737Z,24.81
2019-05-25T16:02:48.293Z,24.81
2019-05-25T16:05:18.207Z,25.12
2019-05-25T16:07:52.395Z,25.11
2019-05-25T16:10:21.971Z,25.01
2019-05-25T16:12:51.564Z,25.33
2019-05-25T16:15:28.372Z,25.33
2019-05-25T16:17:58.013Z,24.93
2019-05-25T16:20:27.659Z,25.17
2019-05-25T16:22:57.249Z,25.23
2019-05-25T16:25:27.138Z,24.97
2019-05-25T16:27:56.746Z,25.13
2019-05-25T16:30:26.530Z,24.84
2019-05-25T16:33:13.960Z,25.55
2019-05-25T16:35:27.557Z,25.01
2019-05-25T16:37:57.419Z,24.99
2019-05-25T16:40:27.027Z,25.41
2019-05-25T16:42:56.606Z,24.94
2019-05-25T16:45:26.442Z,24.84
2019-05-25T16:47:56.027Z,24.84
2019-05-25T16:50:25.641Z,25.26
2019-05-25T16:52:55.250Z,24.97
2019-05-25T16:55:24.817Z,24.91
2019-05-25T16:57:54.591Z,25.08
2019-05-25T17:00:30.399Z,24.71
2019-05-25T17:03:00.833Z,24.38
2019-05-25T17:05:30.526Z,24.64
2019-05-25T17:08:00.087Z,24.58
2019-05-25T17:10:29.713Z,24.26
2019-05-25T17:12:59.273Z,24.33
2019-05-25T17:15:28.896Z,24.33
2019-05-25T17:17:58.594Z,24.04
2019-05-25T17:20:28.255Z,24.04
2019-05-25T17:22:57.902Z,23.88
2019-05-25T17:25:27.519Z,23.78
2019-05-25T17:27:57.105Z,23.71
2019-05-25T17:30:42.328Z,23.71
2019-05-25T17:33:12.233Z,23.45
2019-05-25T17:35:41.888Z,23.45
2019-05-25T17:38:11.459Z,23.33
2019-05-25T17:40:41.165Z,23.23
2019-05-25T17:43:10.899Z,23.27
2019-05-25T17:45:40.528Z,23.19
2019-05-25T17:48:10.155Z,23.14
2019-05-25T17:50:39.899Z,23.05
2019-05-25T17:53:09.477Z,23.02
2019-05-25T17:55:39.091Z,23.03
2019-05-25T17:58:08.736Z,23.01
2019-05-25T18:00:43.796Z,22.93
2019-05-25T18:03:13.448Z,22.98
2019-05-25T18:05:43.045Z,22.89
2019-05-25T18:08:12.730Z,22.98
2019-05-25T18:10:52.622Z,22.77
2019-05-25T18:13:13.772Z,22.74
2019-05-25T18:15:43.363Z,22.51
2019-05-25T18:18:12.956Z,22.43
2019-05-25T18:20:42.656Z,22.51
2019-05-25T18:23:12.227Z,22.40
2019-05-25T18:25:41.852Z,22.57
2019-05-25T18:28:11.422Z,22.58
2019-05-25T18:30:41.065Z,22.51
2019-05-25T18:33:10.717Z,22.38
2019-05-25T18:35:40.338Z,22.65
2019-05-25T18:38:09.909Z,22.47
2019-05-25T18:40:39.515Z,22.38
2019-05-25T18:43:09.252Z,22.17
2019-05-25T18:45:38.811Z,22.23
2019-05-25T18:48:08.565Z,22.18
2019-05-25T18:50:38.216Z,22.20
2019-05-25T18:53:07.870Z,21.99
2019-05-25T18:55:37.500Z,22.03
2019-05-25T18:58:07.112Z,22.10
2019-05-25T19:00:36.687Z,22.17
2019-05-25T19:03:06.534Z,22.36
2019-05-25T19:05:36.119Z,22.19
2019-05-25T19:08:05.814Z,22.34
2019-05-25T19:10:35.431Z,22.46
2019-05-25T19:13:05.013Z,22.18
2019-05-25T19:15:34.745Z,22.05
2019-05-25T19:18:04.431Z,22.13
2019-05-25T19:20:34.035Z,22.04
2019-05-25T19:23:03.673Z,21.95
2019-05-25T19:25:33.319Z,22.04
2019-05-25T19:28:02.939Z,22.02
2019-05-25T19:30:32.552Z,22.03
2019-05-25T19:33:02.129Z,22.04
2019-05-25T19:35:31.737Z,21.99
2019-05-25T19:38:01.381Z,21.93
2019-05-25T19:40:31.037Z,21.86
2019-05-25T19:43:00.648Z,21.87
2019-05-25T19:45:32.696Z,21.84
2019-05-25T19:48:01.566Z,21.94
2019-05-25T19:50:31.119Z,21.90
2019-05-25T19:53:00.786Z,21.90
2019-05-25T19:55:30.396Z,21.88
2019-05-25T19:57:59.987Z,21.83
2019-05-25T20:00:29.662Z,21.85
2019-05-25T20:02:59.291Z,21.89
2019-05-25T20:05:28.891Z,21.93
2019-05-25T20:07:58.491Z,21.99
2019-05-25T20:10:28.074Z,21.96
2019-05-25T20:12:57.737Z,22.08
2019-05-25T20:15:27.324Z,22.09
2019-05-25T20:17:56.938Z,21.83
2019-05-25T20:20:26.624Z,21.82
2019-05-25T20:22:56.396Z,21.76
2019-05-25T20:25:26.056Z,21.61
2019-05-25T20:27:55.710Z,21.59
2019-05-25T20:30:25.292Z,21.62
2019-05-25T20:32:54.886Z,21.54
2019-05-25T20:35:33.147Z,21.56
2019-05-25T20:37:55.847Z,21.56
2019-05-25T20:40:25.412Z,21.42
2019-05-25T20:42:54.993Z,21.47
2019-05-25T20:45:24.601Z,21.55
2019-05-25T20:47:54.194Z,21.34
2019-05-25T20:50:23.798Z,21.29
2019-05-25T20:52:53.391Z,21.38
2019-05-25T20:55:22.962Z,21.49
2019-05-25T20:57:52.593Z,21.36
2019-05-25T21:00:24.224Z,21.34
2019-05-25T21:03:05.237Z,21.25
2019-05-25T21:05:25.021Z,21.27
2019-05-25T21:07:54.594Z,21.28
2019-05-25T21:10:24.224Z,21.23
2019-05-25T21:12:53.837Z,21.34
2019-05-25T21:15:23.447Z,21.25
2019-05-25T21:17:53.061Z,21.46
2019-05-25T21:20:22.746Z,21.46
2019-05-25T21:22:52.288Z,21.39
2019-05-25T21:25:22.096Z,21.18
2019-05-25T21:27:51.698Z,21.41
2019-05-25T21:30:21.443Z,21.51
2019-05-25T21:32:51.106Z,21.45
2019-05-25T21:35:20.822Z,21.31
2019-05-25T21:37:50.463Z,21.31
2019-05-25T21:40:20.028Z,21.31
2019-05-25T21:42:49.610Z,21.39
2019-05-25T21:45:19.384Z,21.18
2019-05-25T21:47:49.023Z,21.19
2019-05-25T21:50:18.848Z,21.26
2019-05-25T21:52:48.422Z,21.19
2019-05-25T21:55:18.192Z,21.19
2019-05-25T21:57:47.776Z,21.16
2019-05-25T22:00:21.438Z,21.11
2019-05-25T22:02:51.178Z,20.99
2019-05-25T22:05:20.982Z,21.14
2019-05-25T22:07:50.562Z,21.06
2019-05-25T22:10:20.153Z,20.96
2019-05-25T22:12:49.779Z,20.97
2019-05-25T22:15:19.420Z,20.94
2019-05-25T22:17:48.977Z,20.93
2019-05-25T22:20:18.917Z,20.95
2019-05-25T22:22:48.563Z,20.96
2019-05-25T22:25:18.304Z,20.91
2019-05-25T22:27:47.859Z,20.76
2019-05-25T22:30:17.631Z,20.94
2019-05-25T22:32:47.340Z,20.96
2019-05-25T22:35:16.971Z,20.87
2019-05-25T22:37:46.524Z,20.84
2019-05-25T22:40:16.408Z,20.94
2019-05-25T22:42:46.014Z,21.01
2019-05-25T22:45:15.585Z,20.91
2019-05-25T22:47:45.172Z,20.85
2019-05-25T22:50:15.425Z,20.91
2019-05-25T22:52:45.000Z,20.83
2019-05-25T22:55:14.807Z,20.89
2019-05-25T22:57:44.369Z,20.98
2019-05-25T23:00:14.290Z,20.85
2019-05-25T23:02:44.048Z,20.87
2019-05-25T23:05:15.161Z,21.04
2019-05-25T23:07:44.712Z,21.00
2019-05-25T23:10:14.372Z,20.97
2019-05-25T23:12:43.971Z,20.93
2019-05-25T23:15:13.778Z,20.72
2019-05-25T23:17:43.345Z,20.94
2019-05-25T23:20:13.006Z,20.95
2019-05-25T23:22:42.642Z,20.92
2019-05-25T23:25:12.450Z,20.98
2019-05-25T23:27:42.034Z,20.96
2019-05-25T23:30:12.297Z,21.10
2019-05-25T23:32:41.898Z,21.18
2019-05-25T23:35:11.691Z,21.17
2019-05-25T23:37:41.281Z,21.09
2019-05-25T23:40:12.445Z,20.99
2019-05-25T23:42:42.071Z,21.21
2019-05-25T23:45:12.612Z,20.91
2019-05-25T23:47:42.190Z,21.06
2019-05-25T23:50:12.292Z,20.98
2019-05-25T23:52:41.904Z,20.93
2019-05-25T23:55:12.088Z,20.61
2019-05-25T23:57:41.687Z,20.70
